Time;durP1;ratioP1;P1;durP2;ratioP2;P2;SDS_P1;SDS_P2;PMS_P1;PMS_P2;Temp;Humidity;BMP_temperature;BMP_pressure;BME280_temperature;BME280_humidity;BME280_pressure;Samples;Min_cycle;Max_cycle;Signal;HPM_P1;HPM_P2
2022/01/21 00:00:23;;;;;;;;;;;20.10;37.80;;;;;;5098751;28;19924;-46
2022/01/21 00:02:50;;;;;;;;;;;20.10;37.80;;;;;;5108663;27;19954;-44
2022/01/21 00:05:18;;;;;;;;;;;20.10;37.80;;;;;;5123820;27;19931;-42
2022/01/21 00:07:45;;;;;;;;;;;20.10;37.80;;;;;;5141660;27;20021;-45
2022/01/21 00:10:12;;;;;;;;;;;20.10;37.80;;;;;;5115620;28;19947;-42
2022/01/21 00:12:40;;;;;;;;;;;20.10;37.80;;;;;;5123781;27;19972;-44
2022/01/21 00:15:07;;;;;;;;;;;20.10;37.70;;;;;;5102684;28;19935;-42
2022/01/21 00:17:38;;;;;;;;;;;20.00;37.60;;;;;;5115707;28;20384;-43
2022/01/21 00:31:02;;;;;;;;;;;20.00;37.60;;;;;;5124748;27;19931;-46
2022/01/21 00:33:28;;;;;;;;;;;20.00;37.60;;;;;;5127363;27;19920;-45
2022/01/21 00:35:55;;;;;;;;;;;20.00;37.60;;;;;;5088440;28;20453;-44
2022/01/21 00:38:24;;;;;;;;;;;20.00;37.50;;;;;;5104393;28;20461;-44
2022/01/21 00:40:51;;;;;;;;;;;20.00;37.50;;;;;;5094418;28;19920;-44
2022/01/21 00:43:29;;;;;;;;;;;20.00;37.50;;;;;;5133074;27;19931;-43
2022/01/21 00:45:56;;;;;;;;;;;20.00;37.50;;;;;;5106012;28;19923;-43
2022/01/21 00:48:22;;;;;;;;;;;20.00;37.50;;;;;;5106959;28;19943;-44
2022/01/21 00:50:52;;;;;;;;;;;20.00;37.50;;;;;;5117948;28;19919;-45
2022/01/21 00:53:19;;;;;;;;;;;20.00;37.50;;;;;;5120372;28;19923;-52
2022/01/21 00:55:46;;;;;;;;;;;20.00;37.60;;;;;;5119589;28;20054;-42
2022/01/21 00:58:13;;;;;;;;;;;20.00;37.50;;;;;;5107113;28;20375;-46
2022/01/21 01:00:41;;;;;;;;;;;20.00;37.50;;;;;;5098143;28;20025;-42
2022/01/21 01:03:08;;;;;;;;;;;20.00;37.50;;;;;;5107812;28;20324;-45
2022/01/21 01:05:35;;;;;;;;;;;20.00;37.50;;;;;;5103339;28;19981;-43
2022/01/21 01:08:03;;;;;;;;;;;20.00;37.50;;;;;;5094991;28;19935;-43
2022/01/21 01:10:47;;;;;;;;;;;20.00;37.40;;;;;;5110703;27;19923;-43
2022/01/21 01:21:28;;;;;;;;;;;20.00;37.40;;;;;;5108103;27;20297;-42
2022/01/21 01:27:36;;;;;;;;;;;20.00;37.40;;;;;;5114340;27;20448;-43
2022/01/21 01:29:37;;;;;;;;;;;20.00;37.40;;;;;;5114134;27;20316;-46
2022/01/21 01:32:06;;;;;;;;;;;20.00;37.40;;;;;;5109235;27;19936;-43
2022/01/21 01:34:33;;;;;;;;;;;20.00;37.40;;;;;;5128057;27;19927;-45
2022/01/21 01:37:05;;;;;;;;;;;20.00;37.40;;;;;;5110888;27;19931;-43
2022/01/21 01:39:39;;;;;;;;;;;20.00;37.40;;;;;;5112723;27;19923;-43
2022/01/21 01:42:33;;;;;;;;;;;20.00;37.40;;;;;;5098642;27;19930;-42
2022/01/21 01:50:30;;;;;;;;;;;19.90;37.20;;;;;;5139486;27;19930;-43
2022/01/21 01:52:57;;;;;;;;;;;20.00;37.30;;;;;;5128444;27;20514;-46
2022/01/21 01:55:24;;;;;;;;;;;20.00;37.30;;;;;;5131210;27;19987;-46
2022/01/21 01:57:51;;;;;;;;;;;20.00;37.30;;;;;;5111183;27;19924;-42
2022/01/21 02:03:28;;;;;;;;;;;20.00;37.20;;;;;;5101245;27;19938;-45
2022/01/21 02:05:55;;;;;;;;;;;19.90;37.10;;;;;;5127586;27;19949;-44
2022/01/21 02:08:22;;;;;;;;;;;19.90;37.10;;;;;;5110741;27;20017;-45
2022/01/21 02:10:49;;;;;;;;;;;19.90;37.10;;;;;;5111984;27;19934;-43
2022/01/21 02:13:29;;;;;;;;;;;19.90;37.10;;;;;;5128689;27;19955;-42
2022/01/21 02:16:01;;;;;;;;;;;19.90;37.10;;;;;;5130744;27;19924;-45
2022/01/21 02:24:16;;;;;;;;;;;19.90;37.00;;;;;;5060470;27;19932;-47
2022/01/21 02:26:43;;;;;;;;;;;19.90;37.00;;;;;;5106972;27;19936;-44
2022/01/21 02:29:11;;;;;;;;;;;19.90;37.00;;;;;;5124973;27;19943;-43
2022/01/21 02:31:38;;;;;;;;;;;19.90;37.00;;;;;;5106369;27;19923;-43
2022/01/21 02:34:05;;;;;;;;;;;19.90;37.00;;;;;;5098235;27;20485;-45
2022/01/21 02:36:34;;;;;;;;;;;19.90;37.00;;;;;;5108508;27;20426;-45
2022/01/21 02:39:00;;;;;;;;;;;19.90;37.00;;;;;;5107129;27;19923;-45
2022/01/21 02:41:27;;;;;;;;;;;19.90;37.00;;;;;;5110135;27;20023;-42
2022/01/21 02:43:54;;;;;;;;;;;19.90;37.00;;;;;;5110444;27;19978;-46
2022/01/21 02:46:22;;;;;;;;;;;19.90;37.00;;;;;;5104108;27;19927;-45
2022/01/21 02:48:50;;;;;;;;;;;19.90;37.00;;;;;;5110055;27;20006;-44
2022/01/21 02:51:20;;;;;;;;;;;19.90;37.00;;;;;;5105968;27;20351;-44
2022/01/21 02:54:07;;;;;;;;;;;19.90;37.00;;;;;;5126144;27;19923;-43
2022/01/21 02:56:34;;;;;;;;;;;19.90;37.00;;;;;;5109448;27;19924;-45
2022/01/21 02:59:01;;;;;;;;;;;19.90;36.90;;;;;;5110747;27;20026;-45
2022/01/21 03:01:31;;;;;;;;;;;19.90;37.00;;;;;;5106765;27;20011;-47
2022/01/21 03:03:58;;;;;;;;;;;19.90;37.00;;;;;;5110365;27;19927;-44
2022/01/21 03:06:25;;;;;;;;;;;19.90;36.90;;;;;;5109953;27;20018;-44
2022/01/21 03:08:54;;;;;;;;;;;19.90;36.90;;;;;;5126249;27;20432;-48
2022/01/21 03:11:21;;;;;;;;;;;19.90;36.90;;;;;;5108395;27;19927;-49
2022/01/21 03:13:47;;;;;;;;;;;19.90;36.90;;;;;;5107092;27;20320;-46
2022/01/21 03:16:14;;;;;;;;;;;19.90;36.90;;;;;;5106144;27;19972;-43
2022/01/21 03:18:42;;;;;;;;;;;19.90;36.90;;;;;;5108513;27;20347;-44
2022/01/21 03:21:15;;;;;;;;;;;19.90;36.90;;;;;;5100723;27;21023;-46
2022/01/21 03:23:43;;;;;;;;;;;19.90;36.90;;;;;;5113348;27;20457;-44
2022/01/21 03:26:11;;;;;;;;;;;19.90;36.90;;;;;;5119862;27;19927;-43
2022/01/21 03:28:41;;;;;;;;;;;19.90;36.90;;;;;;5109742;27;19924;-44
2022/01/21 03:31:08;;;;;;;;;;;19.90;36.80;;;;;;5109758;27;19976;-46
2022/01/21 03:33:35;;;;;;;;;;;19.90;36.90;;;;;;5127080;27;20330;-46
2022/01/21 03:36:02;;;;;;;;;;;19.90;36.90;;;;;;5109770;27;19928;-45
2022/01/21 03:38:28;;;;;;;;;;;19.90;36.80;;;;;;5104029;27;19927;-45
2022/01/21 03:40:55;;;;;;;;;;;19.90;36.80;;;;;;5126601;27;19931;-42
2022/01/21 03:43:24;;;;;;;;;;;19.90;36.80;;;;;;5109159;27;19950;-44
2022/01/21 03:45:51;;;;;;;;;;;19.90;36.90;;;;;;5109809;27;19923;-46
2022/01/21 03:48:18;;;;;;;;;;;19.90;36.90;;;;;;5107873;27;20378;-48
2022/01/21 03:50:45;;;;;;;;;;;19.80;36.80;;;;;;5107353;27;19972;-43
2022/01/21 03:53:15;;;;;;;;;;;19.80;36.80;;;;;;5109087;28;19927;-46
2022/01/21 03:55:43;;;;;;;;;;;19.90;36.80;;;;;;5109505;28;20022;-46
2022/01/21 03:58:10;;;;;;;;;;;19.90;36.90;;;;;;5108125;28;19981;-45
2022/01/21 04:00:39;;;;;;;;;;;19.90;36.90;;;;;;5097598;28;19932;-44
2022/01/21 04:03:06;;;;;;;;;;;19.90;36.90;;;;;;5103176;28;20382;-45
2022/01/21 04:05:33;;;;;;;;;;;19.90;36.90;;;;;;5126721;28;20415;-45
2022/01/21 04:08:00;;;;;;;;;;;19.90;36.80;;;;;;5109222;28;20102;-43
2022/01/21 04:10:27;;;;;;;;;;;19.90;36.80;;;;;;5105323;28;19938;-44
2022/01/21 04:12:54;;;;;;;;;;;19.80;36.80;;;;;;5126019;28;20018;-42
2022/01/21 04:15:22;;;;;;;;;;;19.90;36.80;;;;;;5127700;28;19980;-45
2022/01/21 04:17:50;;;;;;;;;;;19.90;36.90;;;;;;5127332;28;20261;-43
2022/01/21 04:20:17;;;;;;;;;;;19.90;36.80;;;;;;5139780;27;20432;-46
2022/01/21 04:22:44;;;;;;;;;;;19.90;36.90;;;;;;5100480;28;20190;-50
2022/01/21 04:25:11;;;;;;;;;;;19.90;36.80;;;;;;5109677;28;19928;-45
2022/01/21 04:27:38;;;;;;;;;;;19.90;36.90;;;;;;5109254;28;19976;-43
2022/01/21 04:30:05;;;;;;;;;;;19.90;36.80;;;;;;5107805;28;20047;-43
2022/01/21 04:32:32;;;;;;;;;;;19.90;36.80;;;;;;5106444;28;19924;-45
2022/01/21 04:35:00;;;;;;;;;;;19.90;36.80;;;;;;5123893;28;20519;-44
2022/01/21 04:37:30;;;;;;;;;;;19.90;36.80;;;;;;5118787;28;20372;-44
2022/01/21 04:40:02;;;;;;;;;;;19.80;36.80;;;;;;5109261;28;20018;-46
2022/01/21 04:47:58;;;;;;;;;;;19.90;36.80;;;;;;5128068;27;19928;-43
2022/01/21 04:50:27;;;;;;;;;;;19.90;36.80;;;;;;5113058;27;19959;-45
2022/01/21 04:52:54;;;;;;;;;;;19.90;36.90;;;;;;5111174;27;20400;-45
2022/01/21 04:55:21;;;;;;;;;;;19.80;36.80;;;;;;5112477;27;20014;-45
2022/01/21 04:57:47;;;;;;;;;;;19.90;36.80;;;;;;5112142;27;20025;-45
2022/01/21 05:00:16;;;;;;;;;;;19.90;36.80;;;;;;5112685;27;19924;-42
2022/01/21 05:02:43;;;;;;;;;;;19.90;36.90;;;;;;5112668;27;19929;-46
2022/01/21 05:05:12;;;;;;;;;;;19.80;36.80;;;;;;5131232;27;19993;-48
2022/01/21 05:07:41;;;;;;;;;;;19.90;36.90;;;;;;5112492;27;19923;-45
2022/01/21 05:10:08;;;;;;;;;;;19.90;36.90;;;;;;5124657;27;19924;-42
2022/01/21 05:12:38;;;;;;;;;;;19.90;36.90;;;;;;5099511;27;19927;-46
2022/01/21 05:15:13;;;;;;;;;;;19.80;36.80;;;;;;5111687;27;19941;-46
2022/01/21 05:17:45;;;;;;;;;;;19.90;36.90;;;;;;5128173;27;19938;-42
2022/01/21 05:20:12;;;;;;;;;;;19.80;36.80;;;;;;5111511;27;19927;-45
2022/01/21 05:22:41;;;;;;;;;;;19.80;36.80;;;;;;5109320;27;19931;-45
2022/01/21 05:25:09;;;;;;;;;;;19.80;36.80;;;;;;5109305;27;19927;-42
2022/01/21 05:27:35;;;;;;;;;;;19.80;36.80;;;;;;5129963;27;20437;-45
2022/01/21 05:30:14;;;;;;;;;;;19.80;36.80;;;;;;5111866;27;19923;-44
2022/01/21 05:32:41;;;;;;;;;;;19.90;36.80;;;;;;5099930;27;19951;-43
2022/01/21 05:35:08;;;;;;;;;;;19.90;36.80;;;;;;5112396;27;20022;-45
2022/01/21 05:37:35;;;;;;;;;;;19.80;36.80;;;;;;5110184;27;20047;-44
2022/01/21 05:40:04;;;;;;;;;;;19.90;36.90;;;;;;5112029;27;19953;-45
2022/01/21 05:42:33;;;;;;;;;;;19.80;36.90;;;;;;5111079;27;19927;-44
2022/01/21 05:47:45;;;;;;;;;;;19.80;36.80;;;;;;5110832;27;19984;-46
2022/01/21 05:50:11;;;;;;;;;;;19.80;36.80;;;;;;5118927;27;20472;-45
2022/01/21 05:52:45;;;;;;;;;;;19.80;36.80;;;;;;5111731;27;20292;-44
2022/01/21 05:55:13;;;;;;;;;;;19.90;36.90;;;;;;5133886;27;19984;-46
2022/01/21 05:57:47;;;;;;;;;;;19.80;36.80;;;;;;5128936;27;19952;-43
2022/01/21 06:00:15;;;;;;;;;;;19.80;36.80;;;;;;5109384;27;19930;-45
2022/01/21 06:02:41;;;;;;;;;;;19.80;36.80;;;;;;5105587;27;20352;-43
2022/01/21 06:05:11;;;;;;;;;;;19.80;36.80;;;;;;5128908;27;20524;-45
2022/01/21 06:07:38;;;;;;;;;;;19.80;36.80;;;;;;5108116;27;20012;-44
2022/01/21 06:10:05;;;;;;;;;;;19.80;37.40;;;;;;5105708;27;19928;-44
2022/01/21 06:12:38;;;;;;;;;;;19.80;36.80;;;;;;5110171;27;19943;-43
2022/01/21 06:15:05;;;;;;;;;;;19.80;36.80;;;;;;5106999;27;19988;-43
2022/01/21 06:17:32;;;;;;;;;;;19.80;37.10;;;;;;5146011;27;19935;-44
2022/01/21 06:19:59;;;;;;;;;;;19.80;36.80;;;;;;5110845;27;19931;-45
2022/01/21 06:22:26;;;;;;;;;;;19.80;36.80;;;;;;5102475;27;19928;-45
2022/01/21 06:24:53;;;;;;;;;;;19.80;36.80;;;;;;5119853;27;20269;-42
2022/01/21 06:27:26;;;;;;;;;;;19.80;36.80;;;;;;5110665;27;19924;-43
2022/01/21 06:30:04;;;;;;;;;;;19.80;36.70;;;;;;5103691;27;19927;-43
2022/01/21 06:32:31;;;;;;;;;;;19.80;36.80;;;;;;5138112;27;20014;-42
2022/01/21 06:35:02;;;;;;;;;;;19.80;36.80;;;;;;5109128;27;19963;-43
2022/01/21 06:37:28;;;;;;;;;;;19.80;36.80;;;;;;5126907;27;19927;-43
2022/01/21 06:39:55;;;;;;;;;;;19.80;36.80;;;;;;5145102;27;20014;-42
2022/01/21 06:42:24;;;;;;;;;;;19.80;36.70;;;;;;5109660;27;20411;-42
2022/01/21 06:44:51;;;;;;;;;;;19.80;36.80;;;;;;5105806;27;19926;-43
2022/01/21 06:47:20;;;;;;;;;;;19.80;36.80;;;;;;5105574;27;20419;-44
2022/01/21 06:49:47;;;;;;;;;;;19.80;37.40;;;;;;5109358;27;19934;-42
2022/01/21 06:52:13;;;;;;;;;;;19.80;36.80;;;;;;5105863;27;19927;-45
2022/01/21 06:54:40;;;;;;;;;;;19.80;36.80;;;;;;5126223;27;20538;-43
2022/01/21 06:57:08;;;;;;;;;;;19.80;36.80;;;;;;5102777;27;19935;-43
2022/01/21 06:59:35;;;;;;;;;;;19.80;36.80;;;;;;5106659;27;19927;-44
2022/01/21 07:02:02;;;;;;;;;;;19.80;36.80;;;;;;5126114;27;20018;-44
2022/01/21 07:04:30;;;;;;;;;;;19.80;36.80;;;;;;5107147;27;19928;-46
2022/01/21 07:06:58;;;;;;;;;;;19.80;36.70;;;;;;5104841;28;19962;-45
2022/01/21 07:09:26;;;;;;;;;;;19.80;36.80;;;;;;5106723;27;19927;-46
2022/01/21 07:11:53;;;;;;;;;;;19.80;36.70;;;;;;5125459;27;19927;-43
2022/01/21 07:14:19;;;;;;;;;;;19.80;36.70;;;;;;5107401;27;19948;-47
2022/01/21 07:16:46;;;;;;;;;;;19.80;36.70;;;;;;5139051;27;19928;-47
2022/01/21 07:19:13;;;;;;;;;;;19.80;36.70;;;;;;5106986;27;20422;-43
2022/01/21 07:21:42;;;;;;;;;;;19.80;36.70;;;;;;5106005;27;20399;-48
2022/01/21 07:24:09;;;;;;;;;;;19.80;36.70;;;;;;5107826;27;20442;-43
2022/01/21 07:26:39;;;;;;;;;;;19.80;36.70;;;;;;5107773;27;19927;-44
2022/01/21 07:29:06;;;;;;;;;;;19.80;36.70;;;;;;5104790;27;20323;-49
2022/01/21 07:31:33;;;;;;;;;;;19.80;36.80;;;;;;5136007;27;20018;-45
2022/01/21 07:34:04;;;;;;;;;;;19.80;36.70;;;;;;5099377;27;20034;-41
2022/01/21 07:36:31;;;;;;;;;;;19.80;36.80;;;;;;5106728;27;20279;-46
2022/01/21 07:38:59;;;;;;;;;;;19.80;36.80;;;;;;5124456;27;19962;-43
2022/01/21 07:41:26;;;;;;;;;;;19.80;36.80;;;;;;5108096;27;19960;-43
2022/01/21 07:43:53;;;;;;;;;;;19.80;36.80;;;;;;5107431;27;19993;-47
2022/01/21 07:46:21;;;;;;;;;;;19.80;36.80;;;;;;5108676;27;20489;-43
2022/01/21 07:48:48;;;;;;;;;;;19.80;36.80;;;;;;5108196;27;20045;-46
2022/01/21 07:51:14;;;;;;;;;;;19.80;36.80;;;;;;5109244;27;20038;-46
2022/01/21 07:53:41;;;;;;;;;;;19.80;36.80;;;;;;5101531;28;20328;-44
2022/01/21 07:56:09;;;;;;;;;;;19.80;36.80;;;;;;5122356;27;20393;-44
2022/01/21 07:58:36;;;;;;;;;;;19.80;36.90;;;;;;5109414;28;19923;-46
2022/01/21 08:01:03;;;;;;;;;;;19.80;36.90;;;;;;5107944;28;19933;-45
2022/01/21 08:03:30;;;;;;;;;;;19.80;36.90;;;;;;5127439;27;20657;-43
2022/01/21 08:05:58;;;;;;;;;;;19.80;36.90;;;;;;5115999;28;19931;-48
2022/01/21 08:08:26;;;;;;;;;;;19.80;36.90;;;;;;5100053;28;19923;-46
2022/01/21 08:10:53;;;;;;;;;;;19.80;36.90;;;;;;5123469;27;19935;-44
2022/01/21 08:13:21;;;;;;;;;;;19.80;36.90;;;;;;5125902;28;20287;-47
2022/01/21 08:15:48;;;;;;;;;;;19.80;36.90;;;;;;5103954;28;19928;-44
2022/01/21 08:18:15;;;;;;;;;;;19.80;36.80;;;;;;5103706;27;19927;-45
2022/01/21 08:20:42;;;;;;;;;;;19.80;36.80;;;;;;5112112;27;20010;-44
2022/01/21 08:23:09;;;;;;;;;;;19.80;36.80;;;;;;5107536;27;19924;-44
2022/01/21 08:25:36;;;;;;;;;;;19.80;36.80;;;;;;5126863;27;19938;-44
2022/01/21 08:28:03;;;;;;;;;;;19.80;36.80;;;;;;5105414;27;19938;-47
2022/01/21 08:30:32;;;;;;;;;;;19.80;36.80;;;;;;5108755;27;19927;-46
2022/01/21 08:32:59;;;;;;;;;;;19.80;36.80;;;;;;5111872;27;19952;-44
2022/01/21 08:35:26;;;;;;;;;;;19.80;36.80;;;;;;5111576;27;20161;-43
2022/01/21 08:37:53;;;;;;;;;;;19.80;36.80;;;;;;5104821;27;19931;-43
2022/01/21 08:40:20;;;;;;;;;;;19.80;36.80;;;;;;5102495;27;20738;-41
2022/01/21 08:42:47;;;;;;;;;;;19.80;36.80;;;;;;5100910;27;19932;-43
2022/01/21 08:45:13;;;;;;;;;;;19.80;36.70;;;;;;5128818;27;19927;-44
2022/01/21 08:47:42;;;;;;;;;;;19.80;36.70;;;;;;5108177;27;20302;-46
2022/01/21 08:50:10;;;;;;;;;;;19.80;36.70;;;;;;5109463;27;20237;-48
2022/01/21 08:52:37;;;;;;;;;;;19.80;36.70;;;;;;5110333;27;19931;-45
2022/01/21 08:55:05;;;;;;;;;;;19.80;36.80;;;;;;5091882;27;19938;-45
2022/01/21 08:57:32;;;;;;;;;;;19.80;36.70;;;;;;5107871;27;20268;-43
2022/01/21 09:00:00;;;;;;;;;;;19.80;36.70;;;;;;5110248;27;19923;-45
2022/01/21 09:02:27;;;;;;;;;;;19.80;36.70;;;;;;5110141;27;19950;-47
2022/01/21 09:04:57;;;;;;;;;;;19.80;36.70;;;;;;5099777;27;19931;-48
2022/01/21 09:07:24;;;;;;;;;;;19.80;36.70;;;;;;5110444;27;19927;-47
2022/01/21 09:09:51;;;;;;;;;;;19.80;36.70;;;;;;5129375;27;19931;-43
2022/01/21 09:12:18;;;;;;;;;;;19.80;36.70;;;;;;5099015;28;20607;-48
2022/01/21 09:14:45;;;;;;;;;;;19.80;36.60;;;;;;5101838;27;19930;-44
2022/01/21 09:17:11;;;;;;;;;;;19.80;36.70;;;;;;5144321;27;20085;-42
2022/01/21 09:19:38;;;;;;;;;;;19.80;36.70;;;;;;5104618;27;19931;-44
2022/01/21 09:22:07;;;;;;;;;;;19.80;36.70;;;;;;5113695;27;19938;-47
2022/01/21 09:24:34;;;;;;;;;;;19.80;36.70;;;;;;5104503;27;20617;-45
2022/01/21 09:27:01;;;;;;;;;;;19.90;36.80;;;;;;5100189;27;20462;-44
2022/01/21 09:29:28;;;;;;;;;;;19.80;36.80;;;;;;5108083;27;20350;-47
2022/01/21 09:31:55;;;;;;;;;;;19.90;37.40;;;;;;5129982;27;19936;-43
2022/01/21 09:34:22;;;;;;;;;;;19.90;36.90;;;;;;5109929;27;20013;-44
2022/01/21 09:36:51;;;;;;;;;;;19.90;36.80;;;;;;5106141;27;20003;-43
2022/01/21 09:39:21;;;;;;;;;;;19.90;36.80;;;;;;5121384;27;19934;-43
2022/01/21 09:41:48;;;;;;;;;;;19.90;36.90;;;;;;5111316;27;19927;-49
2022/01/21 09:44:15;;;;;;;;;;;19.80;36.80;;;;;;5103320;27;19935;-43
2022/01/21 09:46:46;;;;;;;;;;;19.90;36.80;;;;;;5104363;27;19924;-42
2022/01/21 09:49:26;;;;;;;;;;;19.90;36.80;;;;;;5121840;27;20256;-44
2022/01/21 09:51:53;;;;;;;;;;;19.90;36.80;;;;;;5111247;27;19979;-49
2022/01/21 09:54:22;;;;;;;;;;;19.90;36.80;;;;;;5108000;27;19993;-46
2022/01/21 09:56:49;;;;;;;;;;;19.90;37.40;;;;;;5114066;27;19947;-46
2022/01/21 09:59:16;;;;;;;;;;;19.90;36.80;;;;;;5143370;27;19923;-41
2022/01/21 10:01:43;;;;;;;;;;;19.90;36.80;;;;;;5111601;27;19930;-46
2022/01/21 10:04:10;;;;;;;;;;;19.90;37.40;;;;;;5109555;27;19924;-47
2022/01/21 10:06:37;;;;;;;;;;;19.90;36.80;;;;;;5108237;27;19924;-43
2022/01/21 10:09:04;;;;;;;;;;;19.90;36.80;;;;;;5109273;27;19927;-45
2022/01/21 10:11:32;;;;;;;;;;;19.90;36.80;;;;;;5090079;28;19940;-50
2022/01/21 10:13:59;;;;;;;;;;;19.90;36.80;;;;;;5093178;27;19924;-45
2022/01/21 10:16:26;;;;;;;;;;;19.90;36.80;;;;;;5095971;27;19935;-46
2022/01/21 10:19:00;;;;;;;;;;;19.90;36.80;;;;;;5109986;27;20176;-48
2022/01/21 10:21:28;;;;;;;;;;;19.90;36.80;;;;;;5117713;27;19980;-45
2022/01/21 10:23:55;;;;;;;;;;;19.90;36.90;;;;;;5111633;27;20095;-46
2022/01/21 10:26:23;;;;;;;;;;;19.90;36.90;;;;;;5108019;27;20574;-52
2022/01/21 10:28:55;;;;;;;;;;;19.90;36.90;;;;;;5106794;27;19949;-45
2022/01/21 10:31:23;;;;;;;;;;;19.90;36.90;;;;;;5120421;27;19954;-44
2022/01/21 10:33:51;;;;;;;;;;;19.90;36.90;;;;;;5104105;27;19991;-46
2022/01/21 10:36:24;;;;;;;;;;;19.90;36.90;;;;;;5118929;27;19943;-44
2022/01/21 10:38:52;;;;;;;;;;;19.90;36.90;;;;;;5107180;27;19977;-43
2022/01/21 10:41:19;;;;;;;;;;;19.90;37.00;;;;;;5127892;27;19960;-49
2022/01/21 10:43:46;;;;;;;;;;;19.90;37.00;;;;;;5123590;27;20087;-45
2022/01/21 10:46:15;;;;;;;;;;;19.90;37.00;;;;;;5099964;27;20006;-44
2022/01/21 10:48:59;;;;;;;;;;;19.90;37.00;;;;;;5107066;27;19932;-47
2022/01/21 10:51:26;;;;;;;;;;;19.90;37.10;;;;;;5101996;27;19923;-44
2022/01/21 10:53:53;;;;;;;;;;;19.90;37.10;;;;;;5110521;27;19977;-50
2022/01/21 10:56:20;;;;;;;;;;;19.90;37.10;;;;;;5099577;27;19968;-49
2022/01/21 10:58:50;;;;;;;;;;;19.90;37.10;;;;;;5127046;27;19928;-45
2022/01/21 11:01:21;;;;;;;;;;;19.90;37.10;;;;;;5103678;27;19927;-44
2022/01/21 11:03:58;;;;;;;;;;;19.90;37.20;;;;;;5106615;27;20432;-48
2022/01/21 11:06:29;;;;;;;;;;;19.90;37.20;;;;;;5111843;27;19932;-47
2022/01/21 11:09:20;;;;;;;;;;;19.90;37.20;;;;;;5104111;27;20059;-46
2022/01/21 11:11:47;;;;;;;;;;;19.90;37.20;;;;;;5102729;27;19923;-49
2022/01/21 11:14:15;;;;;;;;;;;19.90;37.20;;;;;;5090357;27;19931;-50
2022/01/21 11:16:45;;;;;;;;;;;19.90;37.30;;;;;;5106781;27;19992;-44
2022/01/21 11:19:13;;;;;;;;;;;20.00;37.40;;;;;;5110919;27;20388;-43
2022/01/21 11:21:41;;;;;;;;;;;19.90;37.30;;;;;;5117007;27;19953;-46
2022/01/21 11:24:08;;;;;;;;;;;20.00;37.40;;;;;;5090965;27;19924;-45
2022/01/21 11:26:35;;;;;;;;;;;19.90;37.40;;;;;;5121108;27;20012;-47
2022/01/21 11:29:02;;;;;;;;;;;20.00;37.40;;;;;;5129166;27;19962;-43
2022/01/21 11:31:29;;;;;;;;;;;19.90;37.40;;;;;;5115732;27;20023;-48
2022/01/21 11:33:58;;;;;;;;;;;19.90;37.40;;;;;;5087812;27;19946;-45
2022/01/21 11:36:25;;;;;;;;;;;19.90;37.40;;;;;;5097497;28;20011;-48
2022/01/21 11:38:54;;;;;;;;;;;19.90;37.40;;;;;;5104435;27;19929;-44
2022/01/21 11:41:21;;;;;;;;;;;20.00;37.50;;;;;;5105553;27;20364;-46
2022/01/21 11:43:51;;;;;;;;;;;20.00;37.50;;;;;;5080664;28;20671;-43
2022/01/21 11:49:08;;;;;;;;;;;20.00;37.60;;;;;;5077963;28;19928;-46
2022/01/21 11:51:35;;;;;;;;;;;20.00;37.60;;;;;;5130742;27;19931;-49
2022/01/21 11:54:03;;;;;;;;;;;20.00;37.60;;;;;;5103526;27;20055;-45
2022/01/21 11:56:43;;;;;;;;;;;20.00;37.60;;;;;;5097977;27;19930;-46
2022/01/21 11:59:11;;;;;;;;;;;20.00;37.70;;;;;;5102160;28;19957;-44
2022/01/21 12:01:46;;;;;;;;;;;20.00;37.70;;;;;;5105714;28;19991;-51
2022/01/21 12:04:15;;;;;;;;;;;20.00;37.70;;;;;;5102450;27;19924;-45
2022/01/21 12:06:42;;;;;;;;;;;20.00;37.70;;;;;;5092136;28;19927;-48
2022/01/21 12:09:10;;;;;;;;;;;20.00;37.80;;;;;;5099574;28;20325;-45
2022/01/21 12:11:38;;;;;;;;;;;20.00;37.80;;;;;;5102233;28;19929;-44
2022/01/21 12:14:07;;;;;;;;;;;20.00;37.80;;;;;;5102836;28;19985;-42
2022/01/21 12:16:47;;;;;;;;;;;20.00;37.80;;;;;;5106932;28;19927;-47
2022/01/21 12:19:24;;;;;;;;;;;20.00;37.80;;;;;;5124389;28;19976;-45
2022/01/21 12:21:51;;;;;;;;;;;20.00;37.90;;;;;;5094010;28;19986;-43
2022/01/21 12:24:37;;;;;;;;;;;20.00;37.90;;;;;;5107795;28;19962;-46
2022/01/21 12:27:04;;;;;;;;;;;20.00;37.90;;;;;;5106020;28;19927;-46
2022/01/21 12:29:31;;;;;;;;;;;20.00;37.90;;;;;;5104839;28;20336;-45
2022/01/21 12:32:04;;;;;;;;;;;20.00;37.90;;;;;;5107814;28;19927;-45
2022/01/21 12:35:02;;;;;;;;;;;20.00;38.00;;;;;;5099890;28;20420;-47
2022/01/21 12:37:40;;;;;;;;;;;20.00;38.00;;;;;;5114066;28;19933;-45
2022/01/21 12:40:07;;;;;;;;;;;20.00;38.00;;;;;;5102131;28;19938;-47
2022/01/21 12:42:35;;;;;;;;;;;20.00;38.00;;;;;;5139384;27;19934;-44
2022/01/21 12:45:17;;;;;;;;;;;20.00;38.00;;;;;;5105763;28;19977;-43
2022/01/21 12:47:44;;;;;;;;;;;20.00;38.00;;;;;;5118415;28;19930;-48
2022/01/21 12:50:15;;;;;;;;;;;20.00;38.10;;;;;;5101587;28;20018;-43
2022/01/21 12:53:15;;;;;;;;;;;20.00;38.10;;;;;;5101881;28;19924;-47
2022/01/21 12:55:56;;;;;;;;;;;20.00;38.20;;;;;;5121863;28;20563;-44
2022/01/21 12:58:23;;;;;;;;;;;20.00;38.20;;;;;;5098351;28;19934;-42
2022/01/21 13:00:51;;;;;;;;;;;20.00;38.30;;;;;;5102291;28;20117;-50
2022/01/21 13:03:22;;;;;;;;;;;20.00;38.40;;;;;;5123310;28;19983;-45
2022/01/21 13:05:52;;;;;;;;;;;20.00;38.40;;;;;;5104933;27;19970;-46
2022/01/21 13:08:28;;;;;;;;;;;20.00;38.40;;;;;;5134240;27;20006;-49
2022/01/21 13:10:55;;;;;;;;;;;20.00;38.50;;;;;;5107100;27;19938;-45
2022/01/21 13:16:02;;;;;;;;;;;20.00;38.60;;;;;;5125174;27;19935;-45
2022/01/21 13:18:31;;;;;;;;;;;20.00;38.70;;;;;;5120542;27;19927;-46
2022/01/21 13:20:58;;;;;;;;;;;20.00;38.70;;;;;;5106574;27;20220;-44
2022/01/21 13:23:41;;;;;;;;;;;20.00;38.70;;;;;;5140488;27;19935;-43
2022/01/21 13:26:12;;;;;;;;;;;20.00;38.70;;;;;;5106057;27;19938;-47
2022/01/21 13:28:53;;;;;;;;;;;20.00;38.80;;;;;;5098483;27;19923;-43
2022/01/21 13:31:19;;;;;;;;;;;20.00;38.80;;;;;;5109391;27;20294;-44
2022/01/21 13:33:46;;;;;;;;;;;20.00;38.80;;;;;;5106750;27;19928;-45
2022/01/21 13:36:13;;;;;;;;;;;20.00;38.90;;;;;;5090917;27;19923;-43
2022/01/21 13:38:41;;;;;;;;;;;20.00;38.90;;;;;;5094721;27;19988;-43
2022/01/21 13:41:11;;;;;;;;;;;20.00;38.90;;;;;;5097958;27;19935;-47
2022/01/21 13:43:39;;;;;;;;;;;20.00;39.00;;;;;;5101540;27;19923;-44
2022/01/21 13:46:08;;;;;;;;;;;20.00;39.00;;;;;;5123083;27;19931;-47
2022/01/21 13:48:35;;;;;;;;;;;20.00;39.10;;;;;;5128484;27;19979;-44
2022/01/21 13:51:02;;;;;;;;;;;20.10;39.20;;;;;;5106476;27;19928;-44
2022/01/21 13:53:29;;;;;;;;;;;20.00;39.10;;;;;;5109256;27;20297;-43
2022/01/21 13:55:58;;;;;;;;;;;20.10;39.20;;;;;;5115931;27;20021;-45
2022/01/21 13:58:25;;;;;;;;;;;20.10;39.20;;;;;;5110274;27;19945;-42
2022/01/21 14:00:53;;;;;;;;;;;20.10;39.30;;;;;;5097414;27;20015;-43
2022/01/21 14:03:22;;;;;;;;;;;20.10;39.30;;;;;;5106026;27;19923;-42
2022/01/21 14:05:50;;;;;;;;;;;20.10;39.30;;;;;;5104153;27;19927;-46
2022/01/21 14:08:18;;;;;;;;;;;20.10;39.30;;;;;;5124667;27;20320;-42
2022/01/21 14:10:45;;;;;;;;;;;20.10;39.90;;;;;;5107039;27;19945;-42
2022/01/21 14:13:13;;;;;;;;;;;20.00;39.20;;;;;;5107157;27;20517;-45
2022/01/21 14:15:40;;;;;;;;;;;20.00;39.20;;;;;;5104098;27;19935;-42
2022/01/21 14:18:07;;;;;;;;;;;20.00;39.30;;;;;;5101676;28;20479;-42
2022/01/21 14:20:36;;;;;;;;;;;20.10;39.30;;;;;;5101550;27;19942;-45
2022/01/21 14:23:02;;;;;;;;;;;20.10;39.40;;;;;;5106784;27;19924;-43
2022/01/21 14:25:29;;;;;;;;;;;20.10;39.40;;;;;;5099797;27;19945;-45
2022/01/21 14:27:56;;;;;;;;;;;20.10;39.40;;;;;;5126895;27;20413;-42
2022/01/21 14:30:24;;;;;;;;;;;20.10;39.40;;;;;;5099756;27;19971;-48
2022/01/21 14:32:51;;;;;;;;;;;20.10;39.40;;;;;;5106923;27;19923;-42
2022/01/21 14:35:25;;;;;;;;;;;20.00;39.30;;;;;;5102051;27;19980;-42
2022/01/21 14:37:53;;;;;;;;;;;20.10;39.30;;;;;;5106326;27;19924;-42
2022/01/21 14:40:22;;;;;;;;;;;20.10;39.30;;;;;;5098570;27;19938;-42
2022/01/21 14:42:50;;;;;;;;;;;20.10;39.30;;;;;;5090120;27;20333;-43
2022/01/21 14:45:17;;;;;;;;;;;20.10;39.30;;;;;;5100579;27;20330;-46
2022/01/21 14:47:46;;;;;;;;;;;20.10;39.30;;;;;;5135475;27;20367;-42
2022/01/21 14:50:14;;;;;;;;;;;20.10;39.30;;;;;;5094197;27;20023;-43
2022/01/21 14:52:45;;;;;;;;;;;20.10;39.30;;;;;;5097382;28;20009;-46
2022/01/21 14:55:16;;;;;;;;;;;20.10;39.50;;;;;;5116800;27;19964;-44
2022/01/21 14:57:47;;;;;;;;;;;20.10;39.50;;;;;;5092586;28;19932;-46
2022/01/21 15:00:15;;;;;;;;;;;20.10;39.60;;;;;;5111183;27;19928;-43
2022/01/21 15:02:42;;;;;;;;;;;20.20;39.70;;;;;;5103969;27;19967;-46
2022/01/21 15:05:12;;;;;;;;;;;20.20;39.80;;;;;;5100862;28;19924;-43
2022/01/21 15:07:40;;;;;;;;;;;20.20;40.20;;;;;;5092703;28;19943;-46
2022/01/21 15:10:20;;;;;;;;;;;20.20;40.20;;;;;;5091441;28;20040;-47
2022/01/21 15:15:31;;;;;;;;;;;20.20;40.40;;;;;;5119736;27;20292;-43
2022/01/21 15:18:00;;;;;;;;;;;20.20;40.50;;;;;;5110032;27;20091;-46